createdAt,value
2018-12-10T00:02:19.807Z,5.80
2018-12-10T00:04:48.081Z,5.80
2018-12-10T00:07:16.346Z,5.80
2018-12-10T00:09:44.580Z,5.80
2018-12-10T00:12:12.921Z,5.80
2018-12-10T00:14:41.178Z,5.80
2018-12-10T00:17:09.464Z,5.80
2018-12-10T00:19:37.686Z,5.80
2018-12-10T00:22:05.944Z,5.80
2018-12-10T00:24:34.212Z,5.80
2018-12-10T00:27:02.558Z,5.80
2018-12-10T00:29:33.621Z,5.80
2018-12-10T00:32:01.934Z,5.80
2018-12-10T00:34:30.257Z,5.80
2018-12-10T00:36:58.498Z,5.80
2018-12-10T00:39:26.754Z,5.80
2018-12-10T00:41:54.999Z,5.80
2018-12-10T00:44:23.228Z,5.80
2018-12-10T00:46:51.486Z,5.80
2018-12-10T00:49:19.733Z,5.80
2018-12-10T00:51:48.079Z,5.80
2018-12-10T00:54:16.322Z,5.80
2018-12-10T00:56:44.578Z,5.80
2018-12-10T00:59:12.890Z,5.80
2018-12-10T01:01:41.352Z,5.80
2018-12-10T01:04:09.707Z,5.80
2018-12-10T01:06:38.022Z,5.80
2018-12-10T01:09:06.728Z,5.80
2018-12-10T01:11:34.954Z,5.80
2018-12-10T01:14:03.362Z,5.80
2018-12-10T01:16:31.634Z,5.70
2018-12-10T01:18:59.873Z,5.70
2018-12-10T01:21:28.096Z,5.70
2018-12-10T01:23:56.344Z,5.70
2018-12-10T01:26:24.589Z,5.70
2018-12-10T01:28:52.810Z,5.70
2018-12-10T01:31:21.061Z,5.70
2018-12-10T01:33:49.428Z,5.70
2018-12-10T01:36:17.634Z,5.60
2018-12-10T01:38:45.995Z,5.60
2018-12-10T01:41:14.238Z,5.60
2018-12-10T01:43:42.470Z,5.60
2018-12-10T01:46:10.808Z,5.60
2018-12-10T01:48:39.073Z,5.60
2018-12-10T01:51:07.322Z,5.60
2018-12-10T01:53:35.641Z,5.60
2018-12-10T01:56:03.971Z,5.60
2018-12-10T01:58:32.214Z,5.60
2018-12-10T02:01:00.701Z,5.60
2018-12-10T02:03:28.935Z,5.60
2018-12-10T02:05:57.158Z,5.60
2018-12-10T02:08:25.398Z,5.60
2018-12-10T02:10:53.654Z,5.60
2018-12-10T02:13:21.867Z,5.60
2018-12-10T02:15:50.137Z,5.60
2018-12-10T02:18:18.397Z,5.60
2018-12-10T02:20:46.635Z,5.60
2018-12-10T02:23:14.866Z,5.60
2018-12-10T02:25:43.175Z,5.60
2018-12-10T02:28:11.409Z,5.60
2018-12-10T02:30:39.657Z,5.60
2018-12-10T02:33:14.635Z,5.60
2018-12-10T02:35:42.969Z,5.60
2018-12-10T02:38:11.477Z,5.60
2018-12-10T02:40:39.894Z,5.60
2018-12-10T02:43:08.132Z,5.60
2018-12-10T02:45:36.349Z,5.60
2018-12-10T02:48:04.803Z,5.60
2018-12-10T02:50:33.028Z,5.50
2018-12-10T02:53:01.289Z,5.50
2018-12-10T02:55:29.531Z,5.50
2018-12-10T02:57:57.785Z,5.50
2018-12-10T03:00:26.006Z,5.50
2018-12-10T03:02:54.231Z,5.50
2018-12-10T03:05:22.577Z,5.50
2018-12-10T03:07:50.828Z,5.50
2018-12-10T03:10:19.115Z,5.50
2018-12-10T03:12:47.364Z,5.50
2018-12-10T03:15:15.613Z,5.50
2018-12-10T03:17:43.886Z,5.50
2018-12-10T03:20:12.197Z,5.50
2018-12-10T03:22:40.445Z,5.50
2018-12-10T03:25:08.891Z,5.50
2018-12-10T03:27:37.126Z,5.50
2018-12-10T03:30:05.548Z,5.50
2018-12-10T03:32:33.803Z,5.50
2018-12-10T03:35:02.052Z,5.50
2018-12-10T03:37:30.426Z,5.50
2018-12-10T03:39:58.644Z,5.50
2018-12-10T03:42:26.923Z,5.50
2018-12-10T03:44:55.245Z,5.50
2018-12-10T03:47:23.482Z,5.50
2018-12-10T03:49:51.732Z,5.50
2018-12-10T03:52:20.138Z,5.50
2018-12-10T03:54:48.402Z,5.50
2018-12-10T03:57:16.657Z,5.50
2018-12-10T03:59:44.912Z,5.40
2018-12-10T04:02:13.141Z,5.40
2018-12-10T04:04:41.392Z,5.40
2018-12-10T04:07:09.945Z,5.40
2018-12-10T04:09:38.194Z,5.40
2018-12-10T04:12:06.467Z,5.40
2018-12-10T04:14:34.715Z,5.30
2018-12-10T04:17:03.525Z,5.30
2018-12-10T04:19:31.789Z,5.30
2018-12-10T04:22:00.028Z,5.30
2018-12-10T04:24:28.350Z,5.30
2018-12-10T04:26:56.594Z,5.30
2018-12-10T04:29:24.846Z,5.30
2018-12-10T04:31:53.117Z,5.30
2018-12-10T04:34:21.351Z,5.20
2018-12-10T04:36:49.775Z,5.20
2018-12-10T04:39:18.219Z,5.20
2018-12-10T04:41:46.523Z,5.20
2018-12-10T04:44:14.739Z,5.20
2018-12-10T04:46:42.969Z,5.20
2018-12-10T04:49:11.202Z,5.20
2018-12-10T04:51:39.434Z,5.10
2018-12-10T04:54:07.718Z,5.10
2018-12-10T04:56:36.019Z,5.10
2018-12-10T04:59:04.255Z,5.10
2018-12-10T05:01:32.705Z,5.10
2018-12-10T05:04:00.973Z,5.10
2018-12-10T05:06:29.219Z,5.10
2018-12-10T05:08:57.490Z,5.10
2018-12-10T05:11:25.690Z,5.10
2018-12-10T05:13:54.061Z,5.10
2018-12-10T05:16:22.368Z,5.10
2018-12-10T05:18:50.607Z,5.10
2018-12-10T05:21:18.929Z,5.10
2018-12-10T05:23:47.175Z,5.10
2018-12-10T05:26:15.496Z,5.10
2018-12-10T05:28:43.730Z,5.10
2018-12-10T05:31:12.020Z,5.10
2018-12-10T05:33:40.299Z,5.10
2018-12-10T05:36:08.650Z,5.10
2018-12-10T05:38:36.982Z,5.10
2018-12-10T05:41:05.226Z,5.10
2018-12-10T05:43:35.368Z,5.10
2018-12-10T05:46:03.810Z,5.10
2018-12-10T05:48:48.794Z,5.10
2018-12-10T05:51:17.136Z,5.10
2018-12-10T05:53:45.646Z,5.10
2018-12-10T05:56:13.985Z,5.10
2018-12-10T05:58:42.546Z,5.10
2018-12-10T06:01:10.896Z,5.00
2018-12-10T06:03:39.314Z,5.00
2018-12-10T06:06:07.796Z,5.00
2018-12-10T06:08:36.233Z,5.00
2018-12-10T06:11:04.702Z,5.00
2018-12-10T06:13:33.090Z,5.10
2018-12-10T06:16:01.571Z,5.10
2018-12-10T06:18:30.079Z,5.10
2018-12-10T06:20:58.902Z,5.10
2018-12-10T06:23:27.473Z,5.10
2018-12-10T06:25:55.824Z,5.10
2018-12-10T06:28:24.198Z,5.10
2018-12-10T06:30:52.658Z,5.10
2018-12-10T06:33:21.800Z,5.10
2018-12-10T06:35:50.219Z,5.10
2018-12-10T06:38:18.666Z,5.10
2018-12-10T06:40:47.142Z,5.10
2018-12-10T06:43:15.520Z,5.10
2018-12-10T06:45:44.545Z,5.10
2018-12-10T06:48:12.901Z,5.10
2018-12-10T06:50:41.273Z,5.10
2018-12-10T06:53:09.622Z,5.10
2018-12-10T06:55:38.007Z,5.10
2018-12-10T06:58:06.370Z,5.00
2018-12-10T07:00:34.781Z,5.00
2018-12-10T07:03:03.310Z,5.00
2018-12-10T07:05:31.654Z,5.00
2018-12-10T07:08:00.048Z,5.00
2018-12-10T07:10:28.418Z,5.00
2018-12-10T07:12:56.879Z,5.00
2018-12-10T07:15:25.819Z,5.00
2018-12-10T07:17:54.188Z,5.00
2018-12-10T07:20:22.627Z,5.00
2018-12-10T07:22:51.035Z,5.00
2018-12-10T07:25:19.513Z,5.00
2018-12-10T07:27:47.903Z,5.00
2018-12-10T07:30:16.344Z,4.90
2018-12-10T07:32:44.903Z,4.90
2018-12-10T07:35:13.338Z,4.90
2018-12-10T07:37:41.728Z,4.90
2018-12-10T07:40:10.098Z,4.90
2018-12-10T07:42:39.571Z,4.90
2018-12-10T07:45:07.886Z,4.90
2018-12-10T07:47:36.285Z,4.90
2018-12-10T07:50:04.826Z,4.80
2018-12-10T07:52:33.191Z,4.80
2018-12-10T07:55:01.714Z,4.80
2018-12-10T07:57:30.046Z,4.80
2018-12-10T07:59:58.407Z,4.80
2018-12-10T08:02:26.851Z,4.80
2018-12-10T08:04:55.355Z,4.80
2018-12-10T08:07:23.731Z,4.80
2018-12-10T08:09:52.116Z,4.70
2018-12-10T08:12:20.590Z,4.70
2018-12-10T08:14:48.992Z,4.70
2018-12-10T08:17:17.436Z,4.70
2018-12-10T08:19:45.882Z,4.70
2018-12-10T08:22:14.340Z,4.70
2018-12-10T08:24:42.832Z,4.70
2018-12-10T08:27:11.262Z,4.70
2018-12-10T08:29:39.653Z,4.70
2018-12-10T08:32:08.119Z,4.70
2018-12-10T08:34:41.349Z,4.70
2018-12-10T08:37:07.097Z,4.70
2018-12-10T08:39:35.563Z,4.70
2018-12-10T08:42:04.230Z,4.70
2018-12-10T08:44:32.658Z,4.70
2018-12-10T08:47:00.975Z,4.70
2018-12-10T08:49:29.430Z,4.80
2018-12-10T08:51:57.738Z,4.70
2018-12-10T08:54:26.136Z,4.80
2018-12-10T08:56:54.484Z,4.80
2018-12-10T08:59:22.746Z,4.80
2018-12-10T09:01:51.032Z,4.80
2018-12-10T09:04:19.343Z,4.80
2018-12-10T09:06:47.709Z,4.80
2018-12-10T09:09:16.056Z,4.90
2018-12-10T09:11:44.568Z,4.90
2018-12-10T09:14:12.939Z,4.90
2018-12-10T09:16:41.318Z,4.90
2018-12-10T09:19:09.714Z,4.90
2018-12-10T09:21:38.461Z,4.90
2018-12-10T09:24:06.762Z,5.00
2018-12-10T09:26:35.141Z,5.00
2018-12-10T09:29:03.574Z,5.00
2018-12-10T09:31:31.861Z,5.10
2018-12-10T09:34:00.223Z,5.10
2018-12-10T09:36:28.485Z,5.10
2018-12-10T09:38:56.815Z,5.10
2018-12-10T09:41:25.223Z,5.10
2018-12-10T09:43:53.483Z,5.20
2018-12-10T09:46:27.477Z,5.20
2018-12-10T09:48:52.583Z,5.20
2018-12-10T09:51:21.085Z,5.30
2018-12-10T09:53:49.370Z,5.30
2018-12-10T09:56:17.719Z,5.30
2018-12-10T09:58:46.114Z,5.30
2018-12-10T10:01:14.411Z,5.30
2018-12-10T10:03:42.674Z,5.40
2018-12-10T10:06:10.977Z,5.40
2018-12-10T10:08:40.182Z,5.40
2018-12-10T10:11:08.489Z,5.40
2018-12-10T10:13:36.898Z,5.40
2018-12-10T10:16:05.282Z,5.40
2018-12-10T10:18:33.727Z,5.50
2018-12-10T10:21:02.142Z,5.50
2018-12-10T10:23:30.554Z,5.50
2018-12-10T10:25:58.896Z,5.50
2018-12-10T10:28:27.172Z,5.50
2018-12-10T10:30:55.439Z,5.60
2018-12-10T10:33:32.158Z,5.60
2018-12-10T10:35:53.935Z,5.60
2018-12-10T10:38:22.292Z,5.60
2018-12-10T10:40:50.547Z,5.60
2018-12-10T10:43:19.524Z,5.70
2018-12-10T10:45:47.884Z,5.70
2018-12-10T10:48:16.262Z,5.70
2018-12-10T10:50:44.711Z,5.70
2018-12-10T10:53:12.951Z,5.80
2018-12-10T10:55:55.850Z,5.80
2018-12-10T10:58:24.192Z,5.80
2018-12-10T11:01:27.811Z,5.90
2018-12-10T11:03:56.158Z,5.90
2018-12-10T11:06:25.149Z,5.90
2018-12-10T11:08:53.418Z,5.90
2018-12-10T11:11:21.653Z,6.00
2018-12-10T11:13:50.005Z,6.00
2018-12-10T11:16:18.280Z,6.00
2018-12-10T11:18:46.563Z,6.00
2018-12-10T11:21:14.810Z,6.10
2018-12-10T11:23:43.362Z,6.10
2018-12-10T11:26:11.667Z,6.10
2018-12-10T11:28:40.058Z,6.20
2018-12-10T11:31:08.484Z,6.20
2018-12-10T11:33:36.744Z,6.20
2018-12-10T11:36:05.148Z,6.20
2018-12-10T11:38:33.362Z,6.20
2018-12-10T11:41:01.772Z,6.30
2018-12-10T11:43:30.018Z,6.30
2018-12-10T11:45:58.369Z,6.30
2018-12-10T11:48:26.630Z,6.30
2018-12-10T11:50:54.849Z,6.40
2018-12-10T11:53:23.088Z,6.40
2018-12-10T11:55:51.353Z,6.40
2018-12-10T11:58:19.683Z,6.50
2018-12-10T12:00:48.013Z,6.50
2018-12-10T12:03:16.739Z,6.50
2018-12-10T12:05:45.073Z,6.50
2018-12-10T12:08:13.322Z,6.60
2018-12-10T12:10:41.886Z,6.60
2018-12-10T12:13:10.323Z,6.60
2018-12-10T12:15:38.724Z,6.70
2018-12-10T12:18:07.061Z,6.70
2018-12-10T12:20:35.415Z,6.70
2018-12-10T12:23:03.930Z,6.70
2018-12-10T12:25:32.214Z,6.80
2018-12-10T12:28:00.629Z,6.80
2018-12-10T12:30:28.968Z,6.80
2018-12-10T12:32:57.259Z,6.80
2018-12-10T12:35:25.554Z,6.90
2018-12-10T12:37:53.810Z,6.90
2018-12-10T12:40:22.043Z,6.90
2018-12-10T12:42:50.288Z,6.90
2018-12-10T12:45:18.525Z,6.90
2018-12-10T12:47:46.838Z,6.90
2018-12-10T12:50:15.214Z,6.90
2018-12-10T12:52:43.542Z,6.90
2018-12-10T12:55:11.906Z,7.00
2018-12-10T12:57:40.158Z,7.00
2018-12-10T13:00:08.560Z,7.00
2018-12-10T13:02:36.799Z,7.00
2018-12-10T13:05:05.431Z,7.00
2018-12-10T13:07:33.789Z,7.00
2018-12-10T13:10:02.068Z,7.00
2018-12-10T13:12:30.344Z,7.00
2018-12-10T13:14:58.639Z,7.00
2018-12-10T13:17:26.883Z,7.00
2018-12-10T13:19:55.134Z,7.10
2018-12-10T13:22:23.394Z,7.10
2018-12-10T13:24:52.523Z,7.10
2018-12-10T13:27:20.778Z,7.10
2018-12-10T13:29:49.130Z,7.10
2018-12-10T13:32:18.260Z,7.10
2018-12-10T13:34:46.849Z,7.10
2018-12-10T13:37:15.088Z,7.10
2018-12-10T13:39:43.404Z,7.10
2018-12-10T13:42:11.781Z,7.10
2018-12-10T13:44:40.176Z,7.10
2018-12-10T13:47:08.419Z,7.10
2018-12-10T13:49:36.776Z,7.10
2018-12-10T13:52:09.102Z,7.10
2018-12-10T13:54:35.562Z,7.10
2018-12-10T13:57:04.105Z,7.10
2018-12-10T13:59:32.352Z,7.10
2018-12-10T14:02:00.670Z,7.10
2018-12-10T14:04:34.239Z,7.10
2018-12-10T14:07:02.574Z,7.10
2018-12-10T14:09:30.873Z,7.10
2018-12-10T14:11:59.789Z,7.10
2018-12-10T14:14:28.161Z,7.10
2018-12-10T14:16:56.721Z,7.00
2018-12-10T14:19:24.974Z,7.00
2018-12-10T14:21:53.235Z,7.00
2018-12-10T14:24:21.537Z,6.90
2018-12-10T14:26:49.869Z,6.90
2018-12-10T14:29:18.409Z,6.90
2018-12-10T14:31:46.669Z,6.90
2018-12-10T14:34:20.562Z,6.80
2018-12-10T14:36:48.942Z,6.80
2018-12-10T14:39:17.296Z,6.80
2018-12-10T14:41:45.570Z,6.80
2018-12-10T14:44:13.839Z,6.70
2018-12-10T14:46:42.383Z,6.70
2018-12-10T14:49:11.223Z,6.70
2018-12-10T14:51:40.033Z,6.70
2018-12-10T14:54:08.886Z,6.70
2018-12-10T14:56:37.126Z,6.60
2018-12-10T14:59:05.401Z,6.60
2018-12-10T15:01:33.640Z,6.60
2018-12-10T15:04:02.850Z,6.60
2018-12-10T15:06:31.139Z,6.50
2018-12-10T15:08:59.534Z,6.50
2018-12-10T15:11:27.858Z,6.50
2018-12-10T15:13:56.093Z,6.50
2018-12-10T15:16:24.341Z,6.50
2018-12-10T15:18:52.823Z,6.50
2018-12-10T15:21:21.197Z,6.40
2018-12-10T15:23:49.477Z,6.40
2018-12-10T15:26:17.733Z,6.40
2018-12-10T15:28:46.183Z,6.40
2018-12-10T15:31:14.406Z,6.40
2018-12-10T15:33:42.628Z,6.30
2018-12-10T15:36:10.854Z,6.30
2018-12-10T15:38:39.129Z,6.30
2018-12-10T15:41:07.478Z,6.30
2018-12-10T15:43:35.745Z,6.30
2018-12-10T15:46:04.169Z,6.20
2018-12-10T15:48:32.393Z,6.20
2018-12-10T15:51:00.642Z,6.20
2018-12-10T15:53:28.904Z,6.20
2018-12-10T15:55:57.159Z,6.20
2018-12-10T15:58:25.386Z,6.10
2018-12-10T16:00:53.722Z,6.10
2018-12-10T16:03:22.229Z,6.10
2018-12-10T16:05:50.537Z,6.10
2018-12-10T16:08:18.859Z,6.10
2018-12-10T16:10:47.246Z,6.00
2018-12-10T16:13:15.595Z,6.00
2018-12-10T16:15:43.862Z,6.00
2018-12-10T16:18:12.119Z,6.00
2018-12-10T16:20:40.444Z,5.90
2018-12-10T16:23:08.803Z,5.90
2018-12-10T16:25:37.374Z,5.90
2018-12-10T16:28:05.856Z,5.90
2018-12-10T16:30:34.788Z,5.90
2018-12-10T16:33:03.342Z,5.90
2018-12-10T16:35:32.450Z,5.80
2018-12-10T16:38:00.761Z,5.80
2018-12-10T16:40:29.342Z,5.80
2018-12-10T16:42:57.634Z,5.80
2018-12-10T16:45:26.042Z,5.80
2018-12-10T16:47:54.384Z,5.80
2018-12-10T16:50:22.650Z,5.80
2018-12-10T16:52:51.016Z,5.70
2018-12-10T16:55:19.265Z,5.70
2018-12-10T16:57:47.601Z,5.70
2018-12-10T17:00:15.942Z,5.70
2018-12-10T17:02:44.263Z,5.70
2018-12-10T17:05:12.677Z,5.70
2018-12-10T17:07:41.160Z,5.60
2018-12-10T17:10:10.592Z,5.60
2018-12-10T17:12:39.293Z,5.60
2018-12-10T17:15:08.614Z,5.60
2018-12-10T17:17:36.908Z,5.60
2018-12-10T17:20:05.954Z,5.50
2018-12-10T17:22:34.409Z,5.50
2018-12-10T17:25:03.618Z,5.50
2018-12-10T17:27:39.913Z,5.50
2018-12-10T17:30:08.350Z,5.50
2018-12-10T17:32:36.771Z,5.50
2018-12-10T17:35:05.815Z,5.50
2018-12-10T17:37:34.043Z,5.50
2018-12-10T17:40:02.610Z,5.50
2018-12-10T17:42:30.929Z,5.50
2018-12-10T17:44:59.239Z,5.40
2018-12-10T17:47:27.541Z,5.50
2018-12-10T17:49:56.096Z,5.40
2018-12-10T17:52:24.410Z,5.50
2018-12-10T17:54:52.713Z,5.40
2018-12-10T17:57:21.043Z,5.40
2018-12-10T17:59:49.547Z,5.40
2018-12-10T18:02:17.782Z,5.40
2018-12-10T18:04:46.033Z,5.40
2018-12-10T18:07:14.620Z,5.40
2018-12-10T18:09:42.909Z,5.40
2018-12-10T18:12:11.225Z,5.40
2018-12-10T18:14:39.511Z,5.40
2018-12-10T18:17:07.748Z,5.30
2018-12-10T18:19:35.990Z,5.30
2018-12-10T18:22:04.663Z,5.30
2018-12-10T18:24:34.002Z,5.30
2018-12-10T18:27:02.307Z,5.30
2018-12-10T18:29:30.564Z,5.20
2018-12-10T18:31:59.032Z,5.20
2018-12-10T18:34:27.417Z,5.20
2018-12-10T18:36:55.743Z,5.20
2018-12-10T18:39:24.009Z,5.20
2018-12-10T18:41:52.254Z,5.20
2018-12-10T18:44:20.474Z,5.10
2018-12-10T18:46:48.743Z,5.10
2018-12-10T18:49:17.007Z,5.10
2018-12-10T18:51:45.377Z,5.10
2018-12-10T18:54:13.737Z,5.10
2018-12-10T18:56:42.012Z,5.00
2018-12-10T18:59:10.236Z,5.00
2018-12-10T19:01:38.816Z,5.00
2018-12-10T19:04:07.148Z,5.00
2018-12-10T19:06:35.670Z,5.00
2018-12-10T19:09:06.807Z,5.00
2018-12-10T19:11:35.324Z,5.00
2018-12-10T19:14:03.814Z,4.90
2018-12-10T19:16:32.203Z,4.90
2018-12-10T19:19:00.471Z,4.90
2018-12-10T19:21:28.747Z,4.90
2018-12-10T19:23:57.466Z,4.90
2018-12-10T19:26:25.748Z,4.90
2018-12-10T19:28:54.119Z,4.90
2018-12-10T19:31:22.502Z,4.80
2018-12-10T19:33:50.766Z,4.80
2018-12-10T19:36:19.063Z,4.80
2018-12-10T19:38:47.328Z,4.80
2018-12-10T19:41:15.705Z,4.80
2018-12-10T19:43:43.959Z,4.80
2018-12-10T19:46:12.304Z,4.80
2018-12-10T19:48:40.587Z,4.70
2018-12-10T19:51:08.930Z,4.70
2018-12-10T19:53:37.320Z,4.70
2018-12-10T19:56:05.566Z,4.70
2018-12-10T19:58:33.829Z,4.70
2018-12-10T20:01:02.247Z,4.70
2018-12-10T20:03:30.607Z,4.70
2018-12-10T20:06:04.252Z,4.60
2018-12-10T20:08:32.509Z,4.70
2018-12-10T20:11:00.725Z,4.60
2018-12-10T20:13:28.991Z,4.60
2018-12-10T20:15:57.295Z,4.60
2018-12-10T20:18:25.546Z,4.60
2018-12-10T20:20:53.861Z,4.60
2018-12-10T20:23:22.146Z,4.60
2018-12-10T20:25:50.445Z,4.60
2018-12-10T20:28:18.870Z,4.60
2018-12-10T20:30:47.347Z,4.60
2018-12-10T20:33:15.679Z,4.60
2018-12-10T20:35:44.010Z,4.60
2018-12-10T20:38:12.315Z,4.60
2018-12-10T20:40:40.581Z,4.60
2018-12-10T20:43:08.926Z,4.60
2018-12-10T20:45:37.278Z,4.60
2018-12-10T20:48:06.086Z,4.60
2018-12-10T20:50:34.431Z,4.60
2018-12-10T20:53:02.769Z,4.60
2018-12-10T20:55:31.022Z,4.60
2018-12-10T20:57:59.294Z,4.60
2018-12-10T21:00:29.570Z,4.60
2018-12-10T21:02:57.933Z,4.60
2018-12-10T21:05:26.219Z,4.60
2018-12-10T21:07:54.662Z,4.60
2018-12-10T21:10:23.014Z,4.60
2018-12-10T21:12:51.287Z,4.60
2018-12-10T21:15:19.564Z,4.60
2018-12-10T21:17:47.926Z,4.60
2018-12-10T21:20:16.171Z,4.60
2018-12-10T21:22:44.530Z,4.60
2018-12-10T21:27:55.696Z,4.70
2018-12-10T21:30:24.026Z,4.70
2018-12-10T21:32:53.298Z,4.70
2018-12-10T21:35:21.539Z,4.70
2018-12-10T21:37:49.805Z,4.70
2018-12-10T21:40:18.045Z,4.70
2018-12-10T21:42:46.334Z,4.70
2018-12-10T21:45:14.609Z,4.70
2018-12-10T21:47:42.884Z,4.70
2018-12-10T21:50:11.184Z,4.70
2018-12-10T21:52:39.451Z,4.70
2018-12-10T21:55:07.985Z,4.70
2018-12-10T21:57:36.325Z,4.70
2018-12-10T22:00:05.280Z,4.70
2018-12-10T22:02:33.524Z,4.70
2018-12-10T22:05:01.971Z,4.70
2018-12-10T22:07:30.328Z,4.70
2018-12-10T22:09:58.565Z,4.70
2018-12-10T22:12:26.817Z,4.70
2018-12-10T22:14:55.102Z,4.70
2018-12-10T22:17:23.350Z,4.70
2018-12-10T22:19:51.610Z,4.70
2018-12-10T22:22:19.909Z,4.70
2018-12-10T22:24:48.150Z,4.70
2018-12-10T22:27:16.504Z,4.70
2018-12-10T22:29:44.728Z,4.70
2018-12-10T22:32:13.051Z,4.70
2018-12-10T22:34:41.270Z,4.70
2018-12-10T22:37:09.493Z,4.60
2018-12-10T22:39:37.743Z,4.60
2018-12-10T22:42:05.986Z,4.60
2018-12-10T22:44:34.232Z,4.60
2018-12-10T22:47:02.966Z,4.60
2018-12-10T22:49:31.259Z,4.60
2018-12-10T22:51:59.475Z,4.50
2018-12-10T22:54:27.754Z,4.50
2018-12-10T22:56:55.980Z,4.50
2018-12-10T22:59:24.235Z,4.50
2018-12-10T23:01:52.563Z,4.50
2018-12-10T23:04:21.041Z,4.50
2018-12-10T23:06:49.311Z,4.40
2018-12-10T23:09:17.533Z,4.40
2018-12-10T23:11:45.805Z,4.40
2018-12-10T23:14:14.139Z,4.40
2018-12-10T23:16:42.844Z,4.40
2018-12-10T23:19:11.126Z,4.40
2018-12-10T23:21:39.352Z,4.40
2018-12-10T23:24:07.605Z,4.40
2018-12-10T23:26:35.826Z,4.40
2018-12-10T23:29:04.182Z,4.40
2018-12-10T23:31:32.875Z,4.40
2018-12-10T23:34:01.118Z,4.40
2018-12-10T23:36:29.318Z,4.30
2018-12-10T23:38:57.606Z,4.40
2018-12-10T23:41:25.838Z,4.30
2018-12-10T23:43:54.069Z,4.30
2018-12-10T23:46:22.287Z,4.30
2018-12-10T23:48:50.535Z,4.30
2018-12-10T23:51:18.803Z,4.30
2018-12-10T23:53:47.134Z,4.30
2018-12-10T23:56:15.355Z,4.40
2018-12-10T23:58:44.012Z,4.30
